sensor_id;sensor_type;location;lat;lon;timestamp;pressure;altitude;pressure_sealevel;temperature;humidity
21838;BME280;11081;45.946;6.140;2023-04-09T00:01:05;95433.91;;;8.26;67.81
21838;BME280;11081;45.946;6.140;2023-04-09T00:03:33;95433.97;;;8.39;67.03
21838;BME280;11081;45.946;6.140;2023-04-09T00:06:03;95433.16;;;8.45;67.69
21838;BME280;11081;45.946;6.140;2023-04-09T00:08:32;95436.38;;;8.54;67.37
21838;BME280;11081;45.946;6.140;2023-04-09T00:11:00;95444.75;;;8.49;67.00
21838;BME280;11081;45.946;6.140;2023-04-09T00:13:28;95438.97;;;8.47;66.80
21838;BME280;11081;45.946;6.140;2023-04-09T00:15:59;95436.34;;;8.47;66.89
21838;BME280;11081;45.946;6.140;2023-04-09T00:18:27;95433.16;;;8.45;67.50
21838;BME280;11081;45.946;6.140;2023-04-09T00:20:55;95419.34;;;8.51;67.35
21838;BME280;11081;45.946;6.140;2023-04-09T00:23:24;95431.97;;;8.54;67.28
21838;BME280;11081;45.946;6.140;2023-04-09T00:25:52;95435.16;;;8.50;67.78
21838;BME280;11081;45.946;6.140;2023-04-09T00:28:20;95434.75;;;8.33;68.75
21838;BME280;11081;45.946;6.140;2023-04-09T00:30:48;95428.31;;;8.16;69.42
21838;BME280;11081;45.946;6.140;2023-04-09T00:33:16;95426.28;;;8.11;69.88
21838;BME280;11081;45.946;6.140;2023-04-09T00:35:44;95424.72;;;8.17;69.04
21838;BME280;11081;45.946;6.140;2023-04-09T00:38:12;95431.16;;;8.34;68.76
21838;BME280;11081;45.946;6.140;2023-04-09T00:40:41;95423.13;;;8.16;69.33
21838;BME280;11081;45.946;6.140;2023-04-09T00:43:09;95422.31;;;8.22;68.75
21838;BME280;11081;45.946;6.140;2023-04-09T00:45:37;95413.13;;;8.26;68.71
21838;BME280;11081;45.946;6.140;2023-04-09T00:48:06;95420.38;;;8.37;68.35
21838;BME280;11081;45.946;6.140;2023-04-09T00:50:34;95420.38;;;8.37;68.45
21838;BME280;11081;45.946;6.140;2023-04-09T00:53:04;95422.38;;;8.35;68.28
21838;BME280;11081;45.946;6.140;2023-04-09T00:55:32;95424.72;;;8.30;68.37
21838;BME280;11081;45.946;6.140;2023-04-09T00:58:02;95418.31;;;8.26;68.46
21838;BME280;11081;45.946;6.140;2023-04-09T01:00:30;95426.72;;;8.21;68.09
21838;BME280;11081;45.946;6.140;2023-04-09T01:02:59;95416.31;;;8.15;68.15
21838;BME280;11081;45.946;6.140;2023-04-09T01:05:32;95425.13;;;8.14;68.36
21838;BME280;11081;45.946;6.140;2023-04-09T01:08:07;95423.13;;;8.16;68.17
21838;BME280;11081;45.946;6.140;2023-04-09T01:10:42;95426.88;;;8.07;68.24
21838;BME280;11081;45.946;6.140;2023-04-09T01:13:19;95427.09;;;8.05;68.70
21838;BME280;11081;45.946;6.140;2023-04-09T01:15:54;95425.09;;;8.01;69.04
21838;BME280;11081;45.946;6.140;2023-04-09T01:18:27;95432.28;;;8.12;68.80
21838;BME280;11081;45.946;6.140;2023-04-09T01:20:59;95423.53;;;8.13;68.41
21838;BME280;11081;45.946;6.140;2023-04-09T01:23:36;95422.69;;;8.06;68.36
21838;BME280;11081;45.946;6.140;2023-04-09T01:26:21;95428.69;;;8.06;68.82
21838;BME280;11081;45.946;6.140;2023-04-09T01:28:58;95424.09;;;7.95;69.02
21838;BME280;11081;45.946;6.140;2023-04-09T01:31:28;95424.28;;;7.93;68.93
21838;BME280;11081;45.946;6.140;2023-04-09T01:33:59;95427.47;;;7.95;68.97
21838;BME280;11081;45.946;6.140;2023-04-09T01:36:28;95421.88;;;7.92;69.08
21838;BME280;11081;45.946;6.140;2023-04-09T01:38:59;95423.84;;;7.83;69.13
21838;BME280;11081;45.946;6.140;2023-04-09T01:41:30;95422.03;;;7.77;69.26
21838;BME280;11081;45.946;6.140;2023-04-09T01:44:01;95417.84;;;7.76;69.65
21838;BME280;11081;45.946;6.140;2023-04-09T01:46:30;95424.25;;;7.80;70.26
21838;BME280;11081;45.946;6.140;2023-04-09T01:49:00;95421.03;;;7.78;70.34
21838;BME280;11081;45.946;6.140;2023-04-09T01:51:28;95421.84;;;7.85;70.19
21838;BME280;11081;45.946;6.140;2023-04-09T01:53:59;95429.84;;;7.77;70.61
21838;BME280;11081;45.946;6.140;2023-04-09T01:56:27;95424.63;;;7.77;70.76
21838;BME280;11081;45.946;6.140;2023-04-09T01:58:55;95424.03;;;7.75;70.98
21838;BME280;11081;45.946;6.140;2023-04-09T02:01:34;95423.84;;;7.77;71.16
21838;BME280;11081;45.946;6.140;2023-04-09T02:04:05;95421.44;;;7.75;71.30
21838;BME280;11081;45.946;6.140;2023-04-09T02:06:39;95420.00;;;7.66;71.44
21838;BME280;11081;45.946;6.140;2023-04-09T02:09:09;95420.59;;;7.68;71.71
21838;BME280;11081;45.946;6.140;2023-04-09T02:11:40;95415.03;;;7.71;71.22
21838;BME280;11081;45.946;6.140;2023-04-09T02:14:10;95416.25;;;7.75;71.22
21838;BME280;11081;45.946;6.140;2023-04-09T02:16:40;95425.03;;;7.74;71.21
21838;BME280;11081;45.946;6.140;2023-04-09T02:19:09;95418.25;;;7.73;71.39
21838;BME280;11081;45.946;6.140;2023-04-09T02:21:37;95424.63;;;7.77;70.98
21838;BME280;11081;45.946;6.140;2023-04-09T02:24:05;95425.84;;;7.75;70.90
21838;BME280;11081;45.946;6.140;2023-04-09T02:26:33;95425.44;;;7.71;71.31
21838;BME280;11081;45.946;6.140;2023-04-09T02:29:01;95428.19;;;7.63;71.46
21838;BME280;11081;45.946;6.140;2023-04-09T02:31:30;95434.97;;;7.57;71.77
21838;BME280;11081;45.946;6.140;2023-04-09T02:33:59;95425.78;;;7.55;71.91
21838;BME280;11081;45.946;6.140;2023-04-09T02:36:27;95428.97;;;7.50;72.04
21838;BME280;11081;45.946;6.140;2023-04-09T02:38:55;95434.09;;;7.44;72.32
21838;BME280;11081;45.946;6.140;2023-04-09T02:41:23;95434.88;;;7.38;72.82
21838;BME280;11081;45.946;6.140;2023-04-09T02:43:51;95433.28;;;7.37;72.54
21838;BME280;11081;45.946;6.140;2023-04-09T02:46:19;95430.47;;;7.31;72.77
21838;BME280;11081;45.946;6.140;2023-04-09T02:48:47;95440.41;;;7.28;73.43
21838;BME280;11081;45.946;6.140;2023-04-09T02:51:17;95437.03;;;7.27;73.74
21838;BME280;11081;45.946;6.140;2023-04-09T02:53:45;95432.47;;;7.29;73.62
21838;BME280;11081;45.946;6.140;2023-04-09T02:56:13;95438.00;;;7.26;73.87
21838;BME280;11081;45.946;6.140;2023-04-09T02:58:41;95428.25;;;7.28;73.66
21838;BME280;11081;45.946;6.140;2023-04-09T03:01:09;95426.44;;;7.22;73.87
21838;BME280;11081;45.946;6.140;2023-04-09T03:03:37;95432.47;;;7.29;73.42
21838;BME280;11081;45.946;6.140;2023-04-09T03:06:08;95425.28;;;7.31;73.62
21838;BME280;11081;45.946;6.140;2023-04-09T03:08:37;95425.47;;;7.30;73.76
21838;BME280;11081;45.946;6.140;2023-04-09T03:11:05;95430.09;;;7.34;73.57
21838;BME280;11081;45.946;6.140;2023-04-09T03:13:33;95420.50;;;7.35;73.28
21838;BME280;11081;45.946;6.140;2023-04-09T03:16:01;95424.50;;;7.38;72.89
21838;BME280;11081;45.946;6.140;2023-04-09T03:18:29;95416.53;;;7.39;72.95
21838;BME280;11081;45.946;6.140;2023-04-09T03:20:58;95418.72;;;7.42;72.97
21838;BME280;11081;45.946;6.140;2023-04-09T03:23:27;95419.72;;;7.41;72.87
21838;BME280;11081;45.946;6.140;2023-04-09T03:26:03;95422.09;;;7.29;73.04
21838;BME280;11081;45.946;6.140;2023-04-09T03:28:39;95417.63;;;7.23;73.00
21838;BME280;11081;45.946;6.140;2023-04-09T03:31:07;95416.81;;;7.16;73.36
21838;BME280;11081;45.946;6.140;2023-04-09T03:33:38;95419.03;;;7.19;73.67
21838;BME280;11081;45.946;6.140;2023-04-09T03:36:07;95412.22;;;7.18;73.28
21838;BME280;11081;45.946;6.140;2023-04-09T03:38:55;95418.41;;;7.17;73.26
21838;BME280;11081;45.946;6.140;2023-04-09T03:41:30;95422.00;;;7.16;73.73
21838;BME280;11081;45.946;6.140;2023-04-09T03:44:02;95423.63;;;7.17;73.45
21838;BME280;11081;45.946;6.140;2023-04-09T03:46:37;95411.63;;;7.16;73.94
21838;BME280;11081;45.946;6.140;2023-04-09T03:49:07;95408.44;;;7.14;73.47
21838;BME280;11081;45.946;6.140;2023-04-09T03:51:40;95417.22;;;7.13;73.66
21838;BME280;11081;45.946;6.140;2023-04-09T03:54:08;95420.56;;;7.07;73.91
21838;BME280;11081;45.946;6.140;2023-04-09T03:56:38;95419.94;;;7.05;73.66
21838;BME280;11081;45.946;6.140;2023-04-09T03:59:09;95423.91;;;7.01;73.59
21838;BME280;11081;45.946;6.140;2023-04-09T04:01:41;95417.50;;;6.97;74.26
21838;BME280;11081;45.946;6.140;2023-04-09T04:04:09;95424.69;;;6.95;74.13
21838;BME280;11081;45.946;6.140;2023-04-09T04:06:45;95423.09;;;6.94;74.13
21838;BME280;11081;45.946;6.140;2023-04-09T04:09:18;95419.38;;;6.75;74.59
21838;BME280;11081;45.946;6.140;2023-04-09T04:11:53;95424.59;;;6.82;74.94
21838;BME280;11081;45.946;6.140;2023-04-09T04:14:26;95416.31;;;6.93;73.86
21838;BME280;11081;45.946;6.140;2023-04-09T04:17:01;95429.06;;;6.88;74.63
21838;BME280;11081;45.946;6.140;2023-04-09T04:19:30;95427.06;;;6.90;74.45
21838;BME280;11081;45.946;6.140;2023-04-09T04:21:58;95438.44;;;6.89;74.82
21838;BME280;11081;45.946;6.140;2023-04-09T04:24:27;95435.84;;;6.89;74.07
21838;BME280;11081;45.946;6.140;2023-04-09T04:26:56;95438.94;;;6.78;74.65
21838;BME280;11081;45.946;6.140;2023-04-09T04:29:29;95442.91;;;6.73;74.56
21838;BME280;11081;45.946;6.140;2023-04-09T04:31:59;95441.69;;;6.69;75.00
21838;BME280;11081;45.946;6.140;2023-04-09T04:34:33;95443.69;;;6.67;75.54
21838;BME280;11081;45.946;6.140;2023-04-09T04:37:12;95452.09;;;6.76;74.71
21838;BME280;11081;45.946;6.140;2023-04-09T04:39:40;95446.31;;;6.74;74.80
21838;BME280;11081;45.946;6.140;2023-04-09T04:42:14;95447.34;;;6.80;75.08
21838;BME280;11081;45.946;6.140;2023-04-09T04:44:43;95450.91;;;6.79;74.84
21838;BME280;11081;45.946;6.140;2023-04-09T04:47:27;95455.72;;;6.82;74.31
21838;BME280;11081;45.946;6.140;2023-04-09T04:49:57;95456.13;;;6.79;74.78
21838;BME280;11081;45.946;6.140;2023-04-09T04:52:25;95462.91;;;6.80;74.72
21838;BME280;11081;45.946;6.140;2023-04-09T04:54:53;95460.88;;;6.75;74.58
21838;BME280;11081;45.946;6.140;2023-04-09T04:57:24;95463.66;;;6.73;74.52
21838;BME280;11081;45.946;6.140;2023-04-09T04:59:52;95467.25;;;6.72;74.94
21838;BME280;11081;45.946;6.140;2023-04-09T05:02:20;95465.75;;;6.63;75.30
21838;BME280;11081;45.946;6.140;2023-04-09T05:05:09;95474.91;;;6.59;75.17
21838;BME280;11081;45.946;6.140;2023-04-09T05:07:43;95468.75;;;6.60;74.99
21838;BME280;11081;45.946;6.140;2023-04-09T05:10:11;95472.22;;;6.67;75.09
21838;BME280;11081;45.946;6.140;2023-04-09T05:12:42;95476.13;;;6.63;74.92
21838;BME280;11081;45.946;6.140;2023-04-09T05:15:17;95472.69;;;6.56;75.27
21838;BME280;11081;45.946;6.140;2023-04-09T05:17:45;95479.88;;;6.54;76.04
21838;BME280;11081;45.946;6.140;2023-04-09T05:20:15;95478.38;;;6.66;75.19
21838;BME280;11081;45.946;6.140;2023-04-09T05:23:02;95473.53;;;6.63;75.29
21838;BME280;11081;45.946;6.140;2023-04-09T05:25:36;95473.19;;;6.66;75.59
21838;BME280;11081;45.946;6.140;2023-04-09T05:28:07;95478.38;;;6.66;75.23
21838;BME280;11081;45.946;6.140;2023-04-09T05:30:37;95475.16;;;6.64;75.22
21838;BME280;11081;45.946;6.140;2023-04-09T05:33:06;95481.22;;;6.71;75.45
21838;BME280;11081;45.946;6.140;2023-04-09T05:35:37;95470.44;;;6.75;74.56
21838;BME280;11081;45.946;6.140;2023-04-09T05:38:05;95478.66;;;6.78;74.65
21838;BME280;11081;45.946;6.140;2023-04-09T05:40:33;95482.03;;;6.79;74.89
21838;BME280;11081;45.946;6.140;2023-04-09T05:43:07;95483.94;;;5.99;77.11
21838;BME280;11081;45.946;6.140;2023-04-09T05:45:39;95487.56;;;5.69;77.96
21838;BME280;11081;45.946;6.140;2023-04-09T05:48:07;95487.69;;;5.82;78.06
21838;BME280;11081;45.946;6.140;2023-04-09T05:50:36;95473.09;;;6.10;77.62
21838;BME280;11081;45.946;6.140;2023-04-09T05:53:20;95479.66;;;6.28;75.92
21838;BME280;11081;45.946;6.140;2023-04-09T05:55:48;95481.34;;;6.42;76.52
21838;BME280;11081;45.946;6.140;2023-04-09T05:58:19;95481.25;;;6.50;75.57
21838;BME280;11081;45.946;6.140;2023-04-09T06:00:48;95483.81;;;6.50;75.30
21838;BME280;11081;45.946;6.140;2023-04-09T06:03:17;95494.56;;;6.47;75.52
21838;BME280;11081;45.946;6.140;2023-04-09T06:05:45;95491.97;;;6.47;75.67
21838;BME280;11081;45.946;6.140;2023-04-09T06:08:14;95484.94;;;6.41;76.77
21838;BME280;11081;45.946;6.140;2023-04-09T06:10:42;95491.72;;;6.42;76.37
21838;BME280;11081;45.946;6.140;2023-04-09T06:13:10;95493.44;;;6.56;75.46
21838;BME280;11081;45.946;6.140;2023-04-09T06:15:39;95499.13;;;6.66;75.02
21838;BME280;11081;45.946;6.140;2023-04-09T06:18:07;95489.47;;;6.60;74.96
21838;BME280;11081;45.946;6.140;2023-04-09T06:20:35;95492.69;;;6.62;75.71
21838;BME280;11081;45.946;6.140;2023-04-09T06:23:03;95491.34;;;6.45;75.45
21838;BME280;11081;45.946;6.140;2023-04-09T06:25:31;95490.13;;;6.41;75.54
21838;BME280;11081;45.946;6.140;2023-04-09T06:28:00;95493.31;;;6.43;76.19
21838;BME280;11081;45.946;6.140;2023-04-09T06:30:28;95487.03;;;6.52;75.77
21838;BME280;11081;45.946;6.140;2023-04-09T06:32:59;95499.97;;;6.73;75.26
21838;BME280;11081;45.946;6.140;2023-04-09T06:35:27;95494.78;;;6.73;75.20
21838;BME280;11081;45.946;6.140;2023-04-09T06:37:54;95497.59;;;6.79;75.00
21838;BME280;11081;45.946;6.140;2023-04-09T06:40:22;95501.53;;;6.96;74.33
21838;BME280;11081;45.946;6.140;2023-04-09T06:42:50;95505.72;;;6.97;74.41
21838;BME280;11081;45.946;6.140;2023-04-09T06:45:22;95503.38;;;7.02;74.23
21838;BME280;11081;45.946;6.140;2023-04-09T06:47:50;95511.09;;;7.23;74.37
21838;BME280;11081;45.946;6.140;2023-04-09T06:50:20;95507.59;;;7.38;73.37
21838;BME280;11081;45.946;6.140;2023-04-09T06:52:48;95511.16;;;7.37;74.06
21838;BME280;11081;45.946;6.140;2023-04-09T06:55:16;95505.97;;;7.37;74.08
21838;BME280;11081;45.946;6.140;2023-04-09T06:57:44;95516.06;;;7.53;73.53
21838;BME280;11081;45.946;6.140;2023-04-09T07:00:12;95520.91;;;7.69;73.18
21838;BME280;11081;45.946;6.140;2023-04-09T07:02:41;95518.56;;;7.74;72.93
21838;BME280;11081;45.946;6.140;2023-04-09T07:05:09;95515.34;;;7.72;73.32
21838;BME280;11081;45.946;6.140;2023-04-09T07:07:38;95516.84;;;7.94;72.71
21838;BME280;11081;45.946;6.140;2023-04-09T07:10:07;95511.91;;;8.13;72.22
21838;BME280;11081;45.946;6.140;2023-04-09T07:12:35;95506.38;;;8.36;71.40
21838;BME280;11081;45.946;6.140;2023-04-09T07:15:05;95508.19;;;8.48;70.53
21838;BME280;11081;45.946;6.140;2023-04-09T07:17:33;95496.72;;;8.23;71.63
21838;BME280;11081;45.946;6.140;2023-04-09T07:20:01;95499.09;;;8.18;72.20
21838;BME280;11081;45.946;6.140;2023-04-09T07:22:30;95505.72;;;8.27;72.48
21838;BME280;11081;45.946;6.140;2023-04-09T07:24:59;95504.38;;;8.51;71.23
21838;BME280;11081;45.946;6.140;2023-04-09T07:27:27;95499.59;;;8.54;71.52
21838;BME280;11081;45.946;6.140;2023-04-09T07:29:56;95505.59;;;8.62;71.43
21838;BME280;11081;45.946;6.140;2023-04-09T07:32:25;95501.59;;;8.79;71.40
21838;BME280;11081;45.946;6.140;2023-04-09T07:34:54;95499.59;;;8.81;72.14
21838;BME280;11081;45.946;6.140;2023-04-09T07:37:23;95505.19;;;9.04;71.90
21838;BME280;11081;45.946;6.140;2023-04-09T07:39:50;95502.75;;;9.16;71.41
21838;BME280;11081;45.946;6.140;2023-04-09T07:42:20;95501.97;;;9.15;70.97
21838;BME280;11081;45.946;6.140;2023-04-09T07:44:48;95497.94;;;9.33;70.81
21838;BME280;11081;45.946;6.140;2023-04-09T07:47:16;95506.38;;;9.22;71.61
21838;BME280;11081;45.946;6.140;2023-04-09T07:49:44;95497.97;;;9.06;72.00
21838;BME280;11081;45.946;6.140;2023-04-09T07:52:12;95501.19;;;9.08;72.04
21838;BME280;11081;45.946;6.140;2023-04-09T07:54:40;95503.59;;;9.16;72.17
21838;BME280;11081;45.946;6.140;2023-04-09T07:57:08;95504.38;;;9.24;71.23
21838;BME280;11081;45.946;6.140;2023-04-09T07:59:38;95503.59;;;9.16;72.40
21838;BME280;11081;45.946;6.140;2023-04-09T08:02:06;95505.56;;;9.28;71.40
21838;BME280;11081;45.946;6.140;2023-04-09T08:04:34;95496.50;;;9.43;72.60
21838;BME280;11081;45.946;6.140;2023-04-09T08:07:02;95505.72;;;9.46;72.08
21838;BME280;11081;45.946;6.140;2023-04-09T08:09:30;95515.75;;;9.36;72.23
21838;BME280;11081;45.946;6.140;2023-04-09T08:11:59;95509.91;;;9.60;71.01
21838;BME280;11081;45.946;6.140;2023-04-09T08:14:26;95516.66;;;9.74;70.71
21838;BME280;11081;45.946;6.140;2023-04-09T08:16:56;95519.47;;;9.80;71.07
21838;BME280;11081;45.946;6.140;2023-04-09T08:19:24;95522.66;;;9.82;70.52
21838;BME280;11081;45.946;6.140;2023-04-09T08:21:52;95520.25;;;9.73;70.82
21838;BME280;11081;45.946;6.140;2023-04-09T08:24:20;95524.59;;;9.93;70.08
21838;BME280;11081;45.946;6.140;2023-04-09T08:26:48;95526.06;;;10.20;69.08
21838;BME280;11081;45.946;6.140;2023-04-09T08:29:16;95532.53;;;10.24;68.87
21838;BME280;11081;45.946;6.140;2023-04-09T08:31:44;95535.56;;;10.53;69.70
21838;BME280;11081;45.946;6.140;2023-04-09T08:34:13;95522.88;;;10.63;67.48
21838;BME280;11081;45.946;6.140;2023-04-09T08:36:44;95522.00;;;10.37;68.06
21838;BME280;11081;45.946;6.140;2023-04-09T08:39:14;95529.19;;;10.04;69.21
21838;BME280;11081;45.946;6.140;2023-04-09T08:41:42;95533.28;;;10.31;68.89
21838;BME280;11081;45.946;6.140;2023-04-09T08:44:10;95535.50;;;10.66;68.38
21838;BME280;11081;45.946;6.140;2023-04-09T08:46:39;95526.66;;;10.67;68.49
21838;BME280;11081;45.946;6.140;2023-04-09T08:49:07;95538.53;;;10.63;69.00
21838;BME280;11081;45.946;6.140;2023-04-09T08:51:37;95533.91;;;10.65;68.60
21838;BME280;11081;45.946;6.140;2023-04-09T08:54:05;95539.94;;;10.59;69.03
21838;BME280;11081;45.946;6.140;2023-04-09T08:56:34;95535.72;;;10.26;70.18
21838;BME280;11081;45.946;6.140;2023-04-09T08:59:02;95526.06;;;10.33;69.47
21838;BME280;11081;45.946;6.140;2023-04-09T09:01:31;95533.13;;;10.58;69.77
21838;BME280;11081;45.946;6.140;2023-04-09T09:04:01;95528.25;;;10.68;69.43
21838;BME280;11081;45.946;6.140;2023-04-09T09:06:31;95525.50;;;10.63;68.93
21838;BME280;11081;45.946;6.140;2023-04-09T09:09:03;95530.72;;;10.63;69.05
21838;BME280;11081;45.946;6.140;2023-04-09T09:11:32;95528.13;;;10.81;68.39
21838;BME280;11081;45.946;6.140;2023-04-09T09:14:02;95531.09;;;10.91;67.87
21838;BME280;11081;45.946;6.140;2023-04-09T09:16:30;95523.16;;;11.05;67.75
21838;BME280;11081;45.946;6.140;2023-04-09T09:19:01;95522.16;;;11.06;66.88
21838;BME280;11081;45.946;6.140;2023-04-09T09:21:29;95514.84;;;10.89;69.23
21838;BME280;11081;45.946;6.140;2023-04-09T09:23:57;95513.91;;;10.77;70.13
21838;BME280;11081;45.946;6.140;2023-04-09T09:26:27;95519.19;;;10.95;68.18
21838;BME280;11081;45.946;6.140;2023-04-09T09:28:56;95514.56;;;10.97;69.24
21838;BME280;11081;45.946;6.140;2023-04-09T09:31:25;95515.91;;;11.07;67.50
21838;BME280;11081;45.946;6.140;2023-04-09T09:33:53;95520.41;;;11.18;67.31
21838;BME280;11081;45.946;6.140;2023-04-09T09:36:32;95514.63;;;11.16;67.23
21838;BME280;11081;45.946;6.140;2023-04-09T09:39:00;95520.16;;;11.26;66.19
21838;BME280;11081;45.946;6.140;2023-04-09T09:41:35;95515.22;;;11.36;67.84
21838;BME280;11081;45.946;6.140;2023-04-09T09:44:03;95517.16;;;11.47;67.65
21838;BME280;11081;45.946;6.140;2023-04-09T09:46:34;95513.19;;;11.38;68.07
21838;BME280;11081;45.946;6.140;2023-04-09T09:49:02;95510.31;;;11.46;66.86
21838;BME280;11081;45.946;6.140;2023-04-09T09:51:32;95506.09;;;11.64;65.93
21838;BME280;11081;45.946;6.140;2023-04-09T09:54:03;95508.00;;;11.75;65.14
21838;BME280;11081;45.946;6.140;2023-04-09T09:56:37;95496.38;;;11.71;65.52
21838;BME280;11081;45.946;6.140;2023-04-09T09:59:14;95493.91;;;11.76;64.84
21838;BME280;11081;45.946;6.140;2023-04-09T10:01:44;95507.44;;;11.91;63.81
21838;BME280;11081;45.946;6.140;2023-04-09T10:04:14;95504.78;;;11.73;64.61
21838;BME280;11081;45.946;6.140;2023-04-09T10:06:43;95499.69;;;11.78;64.19
21838;BME280;11081;45.946;6.140;2023-04-09T10:09:12;95504.50;;;11.99;63.49
21838;BME280;11081;45.946;6.140;2023-04-09T10:11:41;95507.78;;;11.95;63.44
21838;BME280;11081;45.946;6.140;2023-04-09T10:14:11;95504.94;;;11.96;62.02
21838;BME280;11081;45.946;6.140;2023-04-09T10:16:40;95499.97;;;12.06;61.31
21838;BME280;11081;45.946;6.140;2023-04-09T10:19:08;95498.38;;;12.05;61.46
21838;BME280;11081;45.946;6.140;2023-04-09T10:21:42;95501.75;;;11.94;60.74
21838;BME280;11081;45.946;6.140;2023-04-09T10:24:13;95490.25;;;12.13;60.03
21838;BME280;11081;45.946;6.140;2023-04-09T10:26:44;95488.63;;;12.31;59.68
21838;BME280;11081;45.946;6.140;2023-04-09T10:29:13;95477.38;;;12.42;59.78
21838;BME280;11081;45.946;6.140;2023-04-09T10:31:46;95491.03;;;12.44;57.87
21838;BME280;11081;45.946;6.140;2023-04-09T10:34:16;95481.91;;;12.35;59.46
21838;BME280;11081;45.946;6.140;2023-04-09T10:36:49;95479.97;;;12.42;58.81
21838;BME280;11081;45.946;6.140;2023-04-09T10:39:18;95476.47;;;12.48;59.15
21838;BME280;11081;45.946;6.140;2023-04-09T10:41:48;95475.59;;;12.54;58.91
21838;BME280;11081;45.946;6.140;2023-04-09T10:44:20;95470.34;;;12.54;58.98
21838;BME280;11081;45.946;6.140;2023-04-09T10:46:48;95478.31;;;12.59;58.52
21838;BME280;11081;45.946;6.140;2023-04-09T10:49:18;95473.53;;;12.56;58.52
21838;BME280;11081;45.946;6.140;2023-04-09T10:52:01;95468.53;;;12.66;57.04
21838;BME280;11081;45.946;6.140;2023-04-09T10:54:37;95466.19;;;12.76;57.04
21838;BME280;11081;45.946;6.140;2023-04-09T10:57:11;95461.06;;;12.81;57.52
21838;BME280;11081;45.946;6.140;2023-04-09T10:59:41;95469.28;;;12.97;58.19
21838;BME280;11081;45.946;6.140;2023-04-09T11:05:18;95469.59;;;13.00;57.31
21838;BME280;11081;45.946;6.140;2023-04-09T11:07:53;95456.50;;;12.89;58.22
21838;BME280;11081;45.946;6.140;2023-04-09T11:10:24;95458.53;;;12.87;59.70
21838;BME280;11081;45.946;6.140;2023-04-09T11:12:53;95458.53;;;12.87;58.65
21838;BME280;11081;45.946;6.140;2023-04-09T11:15:21;95459.69;;;12.91;57.62
21838;BME280;11081;45.946;6.140;2023-04-09T11:17:49;95448.53;;;13.07;57.44
21838;BME280;11081;45.946;6.140;2023-04-09T11:20:20;95448.34;;;13.20;56.69
21838;BME280;11081;45.946;6.140;2023-04-09T11:22:50;95443.53;;;13.17;57.30
21838;BME280;11081;45.946;6.140;2023-04-09T11:25:19;95444.22;;;13.24;55.84
21838;BME280;11081;45.946;6.140;2023-04-09T11:27:47;95440.09;;;13.28;56.44
21838;BME280;11081;45.946;6.140;2023-04-09T11:30:18;95434.19;;;13.21;55.79
21838;BME280;11081;45.946;6.140;2023-04-09T11:32:47;95436.22;;;13.42;59.17
21838;BME280;11081;45.946;6.140;2023-04-09T11:35:16;95435.69;;;13.69;57.21
21838;BME280;11081;45.946;6.140;2023-04-09T11:37:45;95437.50;;;13.80;56.00
21838;BME280;11081;45.946;6.140;2023-04-09T11:40:14;95440.22;;;13.85;55.04
21838;BME280;11081;45.946;6.140;2023-04-09T11:42:43;95434.50;;;13.88;55.96
21838;BME280;11081;45.946;6.140;2023-04-09T11:45:13;95430.38;;;13.92;55.58
21838;BME280;11081;45.946;6.140;2023-04-09T11:47:44;95431.47;;;13.68;54.89
21838;BME280;11081;45.946;6.140;2023-04-09T11:50:13;95426.94;;;13.52;55.32
21838;BME280;11081;45.946;6.140;2023-04-09T11:52:42;95423.91;;;13.55;55.52
21838;BME280;11081;45.946;6.140;2023-04-09T11:55:11;95417.72;;;13.61;54.54
21838;BME280;11081;45.946;6.140;2023-04-09T11:57:50;95417.63;;;13.84;54.66
21838;BME280;11081;45.946;6.140;2023-04-09T12:00:19;95418.47;;;14.01;54.80
21838;BME280;11081;45.946;6.140;2023-04-09T12:02:49;95422.34;;;13.70;54.52
21838;BME280;11081;45.946;6.140;2023-04-09T12:05:21;95408.66;;;13.80;55.66
21838;BME280;11081;45.946;6.140;2023-04-09T12:07:50;95407.97;;;14.01;55.01
21838;BME280;11081;45.946;6.140;2023-04-09T12:10:26;95407.03;;;14.08;55.33
21838;BME280;11081;45.946;6.140;2023-04-09T12:12:59;95408.78;;;14.02;55.35
21838;BME280;11081;45.946;6.140;2023-04-09T12:15:31;95397.28;;;13.91;56.01
21838;BME280;11081;45.946;6.140;2023-04-09T12:18:00;95400.31;;;13.83;55.57
21838;BME280;11081;45.946;6.140;2023-04-09T12:20:31;95408.25;;;13.88;55.93
21838;BME280;11081;45.946;6.140;2023-04-09T12:23:01;95406.19;;;13.90;54.85
21838;BME280;11081;45.946;6.140;2023-04-09T12:25:29;95409.72;;;13.96;55.86
21838;BME280;11081;45.946;6.140;2023-04-09T12:27:58;95416.09;;;14.00;57.19
21838;BME280;11081;45.946;6.140;2023-04-09T12:30:26;95418.00;;;14.04;55.66
21838;BME280;11081;45.946;6.140;2023-04-09T12:32:54;95405.91;;;14.03;55.64
21838;BME280;11081;45.946;6.140;2023-04-09T12:35:24;95402.81;;;14.07;55.18
21838;BME280;11081;45.946;6.140;2023-04-09T12:37:52;95397.97;;;14.15;54.89
21838;BME280;11081;45.946;6.140;2023-04-09T12:40:20;95399.34;;;14.18;53.90
21838;BME280;11081;45.946;6.140;2023-04-09T12:42:49;95402.13;;;14.28;54.15
21838;BME280;11081;45.946;6.140;2023-04-09T12:45:18;95402.44;;;14.15;55.38
21838;BME280;11081;45.946;6.140;2023-04-09T12:47:46;95400.38;;;14.17;53.49
21838;BME280;11081;45.946;6.140;2023-04-09T12:50:15;95393.22;;;14.29;54.25
21838;BME280;11081;45.946;6.140;2023-04-09T12:52:44;95400.25;;;14.40;52.40
21838;BME280;11081;45.946;6.140;2023-04-09T12:55:13;95398.00;;;14.32;52.37
21838;BME280;11081;45.946;6.140;2023-04-09T12:57:43;95388.81;;;14.46;52.96
21838;BME280;11081;45.946;6.140;2023-04-09T13:00:12;95402.81;;;14.52;53.00
21838;BME280;11081;45.946;6.140;2023-04-09T13:02:40;95405.06;;;14.43;52.53
21838;BME280;11081;45.946;6.140;2023-04-09T13:05:08;95396.13;;;14.44;51.86
21838;BME280;11081;45.946;6.140;2023-04-09T13:07:37;95404.28;;;14.59;52.07
21838;BME280;11081;45.946;6.140;2023-04-09T13:10:09;95393.75;;;14.59;51.10
21838;BME280;11081;45.946;6.140;2023-04-09T13:12:37;95390.72;;;14.68;51.41
21838;BME280;11081;45.946;6.140;2023-04-09T13:15:06;95382.91;;;14.89;50.67
21838;BME280;11081;45.946;6.140;2023-04-09T13:17:34;95394.50;;;15.10;49.95
21838;BME280;11081;45.946;6.140;2023-04-09T13:20:02;95388.88;;;15.23;50.83
21838;BME280;11081;45.946;6.140;2023-04-09T13:22:30;95386.56;;;15.49;50.59
21838;BME280;11081;45.946;6.140;2023-04-09T13:24:58;95382.56;;;15.63;49.16